sensor_id;sensor_type;location;lat;lon;timestamp;P1;durP1;ratioP1;P2;durP2;ratioP2
69912;SDS011;57198;52.082;5.108;2023-04-01T00:00:59;30.70;;;11.50;;
69912;SDS011;57198;52.082;5.108;2023-04-01T00:03:27;30.35;;;11.10;;
69912;SDS011;57198;52.082;5.108;2023-04-01T00:05:56;30.48;;;11.57;;
69912;SDS011;57198;52.082;5.108;2023-04-01T00:08:26;24.63;;;11.23;;
69912;SDS011;57198;52.082;5.108;2023-04-01T00:10:54;24.55;;;10.60;;
69912;SDS011;57198;52.082;5.108;2023-04-01T00:13:26;17.40;;;9.32;;
69912;SDS011;57198;52.082;5.108;2023-04-01T00:15:55;21.05;;;9.00;;
69912;SDS011;57198;52.082;5.108;2023-04-01T00:18:25;14.57;;;8.27;;
69912;SDS011;57198;52.082;5.108;2023-04-01T00:20:53;16.63;;;8.27;;
69912;SDS011;57198;52.082;5.108;2023-04-01T00:23:20;17.65;;;7.30;;
69912;SDS011;57198;52.082;5.108;2023-04-01T00:25:48;13.75;;;6.82;;
69912;SDS011;57198;52.082;5.108;2023-04-01T00:28:16;15.32;;;7.47;;
69912;SDS011;57198;52.082;5.108;2023-04-01T00:30:44;16.77;;;7.18;;
69912;SDS011;57198;52.082;5.108;2023-04-01T00:33:12;19.10;;;8.80;;
69912;SDS011;57198;52.082;5.108;2023-04-01T00:35:40;18.50;;;8.75;;
69912;SDS011;57198;52.082;5.108;2023-04-01T00:38:08;19.70;;;9.43;;
69912;SDS011;57198;52.082;5.108;2023-04-01T00:40:39;14.93;;;7.30;;
69912;SDS011;57198;52.082;5.108;2023-04-01T00:43:15;14.20;;;9.15;;
69912;SDS011;57198;52.082;5.108;2023-04-01T00:45:45;16.87;;;8.10;;
69912;SDS011;57198;52.082;5.108;2023-04-01T00:48:14;16.05;;;7.60;;
69912;SDS011;57198;52.082;5.108;2023-04-01T00:50:47;20.95;;;10.95;;
69912;SDS011;57198;52.082;5.108;2023-04-01T00:53:16;18.30;;;9.40;;
69912;SDS011;57198;52.082;5.108;2023-04-01T00:55:47;19.02;;;9.68;;
69912;SDS011;57198;52.082;5.108;2023-04-01T00:58:17;17.77;;;9.37;;
69912;SDS011;57198;52.082;5.108;2023-04-01T01:00:46;16.45;;;9.80;;
69912;SDS011;57198;52.082;5.108;2023-04-01T01:03:15;16.30;;;8.68;;
69912;SDS011;57198;52.082;5.108;2023-04-01T01:05:51;21.00;;;8.60;;
69912;SDS011;57198;52.082;5.108;2023-04-01T01:08:24;16.55;;;9.10;;
69912;SDS011;57198;52.082;5.108;2023-04-01T01:10:56;25.07;;;9.53;;
69912;SDS011;57198;52.082;5.108;2023-04-01T01:16:25;13.40;;;8.25;;
69912;SDS011;57198;52.082;5.108;2023-04-01T01:18:57;13.32;;;7.75;;
69912;SDS011;57198;52.082;5.108;2023-04-01T01:21:33;22.67;;;9.88;;
69912;SDS011;57198;52.082;5.108;2023-04-01T01:34:28;10.52;;;7.38;;
69912;SDS011;57198;52.082;5.108;2023-04-01T01:37:01;13.47;;;7.10;;
69912;SDS011;57198;52.082;5.108;2023-04-01T01:39:31;9.73;;;5.95;;
69912;SDS011;57198;52.082;5.108;2023-04-01T01:42:02;8.48;;;6.03;;
69912;SDS011;57198;52.082;5.108;2023-04-01T01:44:32;10.75;;;5.25;;
69912;SDS011;57198;52.082;5.108;2023-04-01T01:47:02;11.63;;;6.95;;
69912;SDS011;57198;52.082;5.108;2023-04-01T01:49:33;11.90;;;6.50;;
69912;SDS011;57198;52.082;5.108;2023-04-01T01:52:01;10.57;;;6.07;;
69912;SDS011;57198;52.082;5.108;2023-04-01T01:54:31;12.85;;;6.43;;
69912;SDS011;57198;52.082;5.108;2023-04-01T01:57:06;11.07;;;5.32;;
69912;SDS011;57198;52.082;5.108;2023-04-01T01:59:39;14.18;;;7.00;;
69912;SDS011;57198;52.082;5.108;2023-04-01T02:02:08;11.90;;;6.43;;
69912;SDS011;57198;52.082;5.108;2023-04-01T02:04:38;12.77;;;5.70;;
69912;SDS011;57198;52.082;5.108;2023-04-01T02:07:16;14.38;;;6.93;;
69912;SDS011;57198;52.082;5.108;2023-04-01T02:09:47;13.77;;;5.50;;
69912;SDS011;57198;52.082;5.108;2023-04-01T02:12:16;11.02;;;5.40;;
69912;SDS011;57198;52.082;5.108;2023-04-01T02:14:47;13.53;;;6.07;;
69912;SDS011;57198;52.082;5.108;2023-04-01T02:17:19;16.23;;;6.13;;
69912;SDS011;57198;52.082;5.108;2023-04-01T02:19:49;13.00;;;5.80;;
69912;SDS011;57198;52.082;5.108;2023-04-01T02:22:20;9.55;;;4.53;;
69912;SDS011;57198;52.082;5.108;2023-04-01T02:24:50;11.13;;;5.28;;
69912;SDS011;57198;52.082;5.108;2023-04-01T02:27:20;11.07;;;4.57;;
69912;SDS011;57198;52.082;5.108;2023-04-01T02:29:47;13.57;;;5.40;;
69912;SDS011;57198;52.082;5.108;2023-04-01T02:32:16;11.85;;;5.38;;
69912;SDS011;57198;52.082;5.108;2023-04-01T02:34:45;9.85;;;4.93;;
69912;SDS011;57198;52.082;5.108;2023-04-01T02:37:14;9.55;;;4.90;;
69912;SDS011;57198;52.082;5.108;2023-04-01T02:39:43;9.93;;;5.00;;
69912;SDS011;57198;52.082;5.108;2023-04-01T02:42:11;7.45;;;4.40;;
69912;SDS011;57198;52.082;5.108;2023-04-01T02:44:38;7.88;;;4.53;;
69912;SDS011;57198;52.082;5.108;2023-04-01T02:47:06;10.13;;;4.25;;
69912;SDS011;57198;52.082;5.108;2023-04-01T02:49:34;9.40;;;5.82;;
69912;SDS011;57198;52.082;5.108;2023-04-01T02:52:01;7.63;;;4.07;;
69912;SDS011;57198;52.082;5.108;2023-04-01T02:54:29;7.70;;;5.18;;
69912;SDS011;57198;52.082;5.108;2023-04-01T02:56:57;8.13;;;4.97;;
69912;SDS011;57198;52.082;5.108;2023-04-01T02:59:24;8.57;;;5.13;;
69912;SDS011;57198;52.082;5.108;2023-04-01T03:01:52;8.32;;;5.97;;
69912;SDS011;57198;52.082;5.108;2023-04-01T03:04:20;8.23;;;4.27;;
69912;SDS011;57198;52.082;5.108;2023-04-01T03:06:48;10.32;;;5.65;;
69912;SDS011;57198;52.082;5.108;2023-04-01T03:09:16;10.13;;;5.70;;
69912;SDS011;57198;52.082;5.108;2023-04-01T03:11:44;8.88;;;5.82;;
69912;SDS011;57198;52.082;5.108;2023-04-01T03:14:12;10.73;;;5.97;;
69912;SDS011;57198;52.082;5.108;2023-04-01T03:16:39;9.00;;;5.60;;
69912;SDS011;57198;52.082;5.108;2023-04-01T03:19:08;9.68;;;5.97;;
69912;SDS011;57198;52.082;5.108;2023-04-01T03:21:35;11.63;;;6.60;;
69912;SDS011;57198;52.082;5.108;2023-04-01T03:24:03;11.77;;;6.63;;
69912;SDS011;57198;52.082;5.108;2023-04-01T03:26:32;8.90;;;6.53;;
69912;SDS011;57198;52.082;5.108;2023-04-01T03:28:59;15.47;;;6.53;;
69912;SDS011;57198;52.082;5.108;2023-04-01T03:31:27;8.95;;;5.82;;
69912;SDS011;57198;52.082;5.108;2023-04-01T03:33:56;8.98;;;6.30;;
69912;SDS011;57198;52.082;5.108;2023-04-01T03:36:23;8.85;;;5.70;;
69912;SDS011;57198;52.082;5.108;2023-04-01T03:38:51;13.93;;;7.05;;
69912;SDS011;57198;52.082;5.108;2023-04-01T03:41:26;11.57;;;7.60;;
69912;SDS011;57198;52.082;5.108;2023-04-01T03:43:54;13.05;;;8.10;;
69912;SDS011;57198;52.082;5.108;2023-04-01T03:46:22;15.57;;;8.32;;
69912;SDS011;57198;52.082;5.108;2023-04-01T03:48:50;10.93;;;7.53;;
69912;SDS011;57198;52.082;5.108;2023-04-01T03:51:18;11.32;;;7.47;;
69912;SDS011;57198;52.082;5.108;2023-04-01T03:53:46;13.40;;;7.20;;
69912;SDS011;57198;52.082;5.108;2023-04-01T03:56:14;8.40;;;6.75;;
69912;SDS011;57198;52.082;5.108;2023-04-01T03:58:42;9.07;;;7.40;;
69912;SDS011;57198;52.082;5.108;2023-04-01T04:01:14;10.15;;;6.88;;
69912;SDS011;57198;52.082;5.108;2023-04-01T04:03:42;11.55;;;8.20;;
69912;SDS011;57198;52.082;5.108;2023-04-01T04:06:15;12.63;;;7.40;;
69912;SDS011;57198;52.082;5.108;2023-04-01T04:08:43;10.45;;;7.05;;
69912;SDS011;57198;52.082;5.108;2023-04-01T04:11:11;9.80;;;7.72;;
69912;SDS011;57198;52.082;5.108;2023-04-01T04:13:41;11.80;;;8.00;;
69912;SDS011;57198;52.082;5.108;2023-04-01T04:16:10;11.30;;;7.63;;
69912;SDS011;57198;52.082;5.108;2023-04-01T04:18:43;12.60;;;7.53;;
69912;SDS011;57198;52.082;5.108;2023-04-01T04:21:12;11.40;;;7.40;;
69912;SDS011;57198;52.082;5.108;2023-04-01T04:23:41;10.35;;;7.50;;
69912;SDS011;57198;52.082;5.108;2023-04-01T04:26:10;9.32;;;7.07;;
69912;SDS011;57198;52.082;5.108;2023-04-01T04:28:38;9.82;;;7.70;;
69912;SDS011;57198;52.082;5.108;2023-04-01T04:31:06;10.87;;;7.10;;
69912;SDS011;57198;52.082;5.108;2023-04-01T04:33:35;12.30;;;7.90;;
69912;SDS011;57198;52.082;5.108;2023-04-01T04:36:03;12.20;;;8.45;;
69912;SDS011;57198;52.082;5.108;2023-04-01T04:38:31;9.20;;;6.60;;
69912;SDS011;57198;52.082;5.108;2023-04-01T04:40:59;9.57;;;7.07;;
69912;SDS011;57198;52.082;5.108;2023-04-01T04:43:27;10.30;;;6.87;;
69912;SDS011;57198;52.082;5.108;2023-04-01T04:45:55;8.90;;;7.15;;
69912;SDS011;57198;52.082;5.108;2023-04-01T04:48:23;10.70;;;7.47;;
69912;SDS011;57198;52.082;5.108;2023-04-01T04:50:51;9.93;;;7.55;;
69912;SDS011;57198;52.082;5.108;2023-04-01T04:53:22;11.07;;;7.28;;
69912;SDS011;57198;52.082;5.108;2023-04-01T04:55:49;9.23;;;7.03;;
69912;SDS011;57198;52.082;5.108;2023-04-01T04:58:31;11.40;;;8.30;;
69912;SDS011;57198;52.082;5.108;2023-04-01T05:01:19;12.38;;;8.18;;
69912;SDS011;57198;52.082;5.108;2023-04-01T05:03:46;12.57;;;7.82;;
69912;SDS011;57198;52.082;5.108;2023-04-01T05:06:15;11.35;;;7.82;;
69912;SDS011;57198;52.082;5.108;2023-04-01T05:08:43;10.70;;;7.97;;
69912;SDS011;57198;52.082;5.108;2023-04-01T05:11:12;9.73;;;7.65;;
69912;SDS011;57198;52.082;5.108;2023-04-01T05:13:42;11.63;;;8.77;;
69912;SDS011;57198;52.082;5.108;2023-04-01T05:16:11;11.05;;;8.70;;
69912;SDS011;57198;52.082;5.108;2023-04-01T05:18:39;11.63;;;8.80;;
69912;SDS011;57198;52.082;5.108;2023-04-01T05:21:08;11.83;;;8.50;;
69912;SDS011;57198;52.082;5.108;2023-04-01T05:23:37;9.85;;;7.85;;
69912;SDS011;57198;52.082;5.108;2023-04-01T05:26:08;10.48;;;7.78;;
69912;SDS011;57198;52.082;5.108;2023-04-01T05:28:36;12.82;;;8.95;;
69912;SDS011;57198;52.082;5.108;2023-04-01T05:31:05;13.70;;;8.68;;
69912;SDS011;57198;52.082;5.108;2023-04-01T05:33:42;11.93;;;8.17;;
69912;SDS011;57198;52.082;5.108;2023-04-01T05:36:11;12.38;;;8.63;;
69912;SDS011;57198;52.082;5.108;2023-04-01T05:38:40;11.70;;;8.05;;
69912;SDS011;57198;52.082;5.108;2023-04-01T05:41:10;10.85;;;7.70;;
69912;SDS011;57198;52.082;5.108;2023-04-01T05:43:42;11.98;;;7.47;;
69912;SDS011;57198;52.082;5.108;2023-04-01T05:46:42;9.77;;;7.10;;
69912;SDS011;57198;52.082;5.108;2023-04-01T05:49:22;9.43;;;6.88;;
69912;SDS011;57198;52.082;5.108;2023-04-01T05:51:52;10.88;;;7.50;;
69912;SDS011;57198;52.082;5.108;2023-04-01T05:54:19;11.65;;;7.00;;
69912;SDS011;57198;52.082;5.108;2023-04-01T05:56:48;11.00;;;8.23;;
69912;SDS011;57198;52.082;5.108;2023-04-01T05:59:18;13.50;;;7.57;;
69912;SDS011;57198;52.082;5.108;2023-04-01T06:01:46;13.18;;;7.38;;
69912;SDS011;57198;52.082;5.108;2023-04-01T06:04:14;11.13;;;7.53;;
69912;SDS011;57198;52.082;5.108;2023-04-01T06:06:44;11.40;;;7.68;;
69912;SDS011;57198;52.082;5.108;2023-04-01T06:09:14;14.32;;;7.93;;
69912;SDS011;57198;52.082;5.108;2023-04-01T06:12:01;13.30;;;8.13;;
69912;SDS011;57198;52.082;5.108;2023-04-01T06:14:51;10.52;;;7.68;;
69912;SDS011;57198;52.082;5.108;2023-04-01T06:17:26;12.23;;;8.57;;
69912;SDS011;57198;52.082;5.108;2023-04-01T06:28:07;15.50;;;8.60;;
69912;SDS011;57198;52.082;5.108;2023-04-01T06:30:43;12.45;;;7.55;;
69912;SDS011;57198;52.082;5.108;2023-04-01T06:46:44;14.77;;;8.98;;
69912;SDS011;57198;52.082;5.108;2023-04-01T06:49:44;18.13;;;9.63;;
69912;SDS011;57198;52.082;5.108;2023-04-01T06:55:59;17.90;;;10.43;;
69912;SDS011;57198;52.082;5.108;2023-04-01T06:58:39;19.48;;;11.95;;
69912;SDS011;57198;52.082;5.108;2023-04-01T07:01:14;21.40;;;11.20;;
69912;SDS011;57198;52.082;5.108;2023-04-01T07:03:55;20.98;;;11.85;;
69912;SDS011;57198;52.082;5.108;2023-04-01T07:06:35;20.60;;;11.17;;
69912;SDS011;57198;52.082;5.108;2023-04-01T07:09:06;22.08;;;11.85;;
69912;SDS011;57198;52.082;5.108;2023-04-01T07:11:56;19.45;;;12.90;;
69912;SDS011;57198;52.082;5.108;2023-04-01T07:14:53;21.63;;;11.60;;
69912;SDS011;57198;52.082;5.108;2023-04-01T07:17:23;20.33;;;12.07;;
69912;SDS011;57198;52.082;5.108;2023-04-01T07:19:56;19.77;;;11.17;;
69912;SDS011;57198;52.082;5.108;2023-04-01T07:22:29;20.20;;;11.15;;
69912;SDS011;57198;52.082;5.108;2023-04-01T07:25:17;20.27;;;12.18;;
69912;SDS011;57198;52.082;5.108;2023-04-01T07:27:56;20.17;;;11.00;;
69912;SDS011;57198;52.082;5.108;2023-04-01T07:30:25;20.17;;;10.98;;
69912;SDS011;57198;52.082;5.108;2023-04-01T07:35:30;17.38;;;9.77;;
69912;SDS011;57198;52.082;5.108;2023-04-01T07:40:57;11.38;;;7.90;;
69912;SDS011;57198;52.082;5.108;2023-04-01T07:49:00;16.15;;;8.95;;
69912;SDS011;57198;52.082;5.108;2023-04-01T07:51:40;13.82;;;9.38;;
69912;SDS011;57198;52.082;5.108;2023-04-01T07:54:16;15.48;;;8.60;;
69912;SDS011;57198;52.082;5.108;2023-04-01T07:56:59;14.80;;;8.80;;
69912;SDS011;57198;52.082;5.108;2023-04-01T07:59:58;12.57;;;7.93;;
69912;SDS011;57198;52.082;5.108;2023-04-01T08:07:50;14.10;;;7.85;;
69912;SDS011;57198;52.082;5.108;2023-04-01T08:22:01;21.45;;;10.25;;
69912;SDS011;57198;52.082;5.108;2023-04-01T08:24:41;17.85;;;10.00;;
69912;SDS011;57198;52.082;5.108;2023-04-01T08:27:36;15.30;;;9.00;;
69912;SDS011;57198;52.082;5.108;2023-04-01T08:30:24;16.63;;;8.98;;
69912;SDS011;57198;52.082;5.108;2023-04-01T08:32:53;15.85;;;9.35;;
69912;SDS011;57198;52.082;5.108;2023-04-01T08:35:41;15.82;;;9.45;;
69912;SDS011;57198;52.082;5.108;2023-04-01T08:38:14;15.32;;;9.32;;
69912;SDS011;57198;52.082;5.108;2023-04-01T08:43:27;15.10;;;9.65;;
69912;SDS011;57198;52.082;5.108;2023-04-01T08:56:34;15.93;;;9.45;;
69912;SDS011;57198;52.082;5.108;2023-04-01T09:01:46;12.07;;;7.68;;
69912;SDS011;57198;52.082;5.108;2023-04-01T09:04:41;13.77;;;8.25;;
69912;SDS011;57198;52.082;5.108;2023-04-01T09:17:50;12.27;;;8.35;;
69912;SDS011;57198;52.082;5.108;2023-04-01T09:20:42;16.00;;;8.73;;
69912;SDS011;57198;52.082;5.108;2023-04-01T09:23:32;13.60;;;8.48;;
69912;SDS011;57198;52.082;5.108;2023-04-01T09:28:47;10.27;;;7.05;;
69912;SDS011;57198;52.082;5.108;2023-04-01T09:37:18;11.88;;;6.93;;
69912;SDS011;57198;52.082;5.108;2023-04-01T09:39:56;11.07;;;7.28;;
69912;SDS011;57198;52.082;5.108;2023-04-01T09:45:21;9.93;;;7.10;;
69912;SDS011;57198;52.082;5.108;2023-04-01T09:47:55;9.33;;;6.97;;
69912;SDS011;57198;52.082;5.108;2023-04-01T09:50:29;10.88;;;6.75;;
69912;SDS011;57198;52.082;5.108;2023-04-01T09:53:02;12.48;;;7.35;;
69912;SDS011;57198;52.082;5.108;2023-04-01T09:58:33;10.32;;;6.63;;
69912;SDS011;57198;52.082;5.108;2023-04-01T10:14:16;7.23;;;5.70;;
69912;SDS011;57198;52.082;5.108;2023-04-01T10:16:59;7.20;;;5.07;;
69912;SDS011;57198;52.082;5.108;2023-04-01T10:25:05;7.82;;;6.47;;
69912;SDS011;57198;52.082;5.108;2023-04-01T10:58:39;4.35;;;3.95;;
69912;SDS011;57198;52.082;5.108;2023-04-01T11:21:35;3.55;;;3.22;;
69912;SDS011;57198;52.082;5.108;2023-04-01T11:24:20;4.03;;;3.63;;
69912;SDS011;57198;52.082;5.108;2023-04-01T11:30:05;3.78;;;3.47;;
69912;SDS011;57198;52.082;5.108;2023-04-01T11:38:09;5.57;;;4.27;;
69912;SDS011;57198;52.082;5.108;2023-04-01T11:46:49;6.72;;;4.28;;
69912;SDS011;57198;52.082;5.108;2023-04-01T11:52:17;4.30;;;3.87;;
69912;SDS011;57198;52.082;5.108;2023-04-01T11:54:53;4.32;;;3.92;;
69912;SDS011;57198;52.082;5.108;2023-04-01T11:57:35;3.60;;;3.30;;
69912;SDS011;57198;52.082;5.108;2023-04-01T12:05:41;3.47;;;3.17;;
69912;SDS011;57198;52.082;5.108;2023-04-01T12:11:00;4.35;;;4.05;;
69912;SDS011;57198;52.082;5.108;2023-04-01T12:16:11;6.63;;;5.70;;
69912;SDS011;57198;52.082;5.108;2023-04-01T12:21:51;6.55;;;5.95;;
69912;SDS011;57198;52.082;5.108;2023-04-01T12:34:49;10.73;;;8.02;;
69912;SDS011;57198;52.082;5.108;2023-04-01T12:37:27;11.15;;;9.55;;
69912;SDS011;57198;52.082;5.108;2023-04-01T12:45:18;20.27;;;11.43;;
69912;SDS011;57198;52.082;5.108;2023-04-01T12:58:15;17.53;;;10.70;;
69912;SDS011;57198;52.082;5.108;2023-04-01T13:06:22;14.10;;;9.05;;
69912;SDS011;57198;52.082;5.108;2023-04-01T13:14:06;9.65;;;7.28;;
69912;SDS011;57198;52.082;5.108;2023-04-01T13:25:16;11.90;;;8.03;;
69912;SDS011;57198;52.082;5.108;2023-04-01T13:27:49;13.73;;;8.40;;
69912;SDS011;57198;52.082;5.108;2023-04-01T13:38:08;7.40;;;5.73;;
69912;SDS011;57198;52.082;5.108;2023-04-01T13:40:41;7.75;;;6.20;;
69912;SDS011;57198;52.082;5.108;2023-04-01T13:43:42;9.52;;;7.22;;
69912;SDS011;57198;52.082;5.108;2023-04-01T13:46:23;12.57;;;8.57;;
69912;SDS011;57198;52.082;5.108;2023-04-01T13:49:11;7.28;;;5.90;;
69912;SDS011;57198;52.082;5.108;2023-04-01T13:51:47;8.33;;;6.67;;
69912;SDS011;57198;52.082;5.108;2023-04-01T14:21:41;5.57;;;4.97;;
69912;SDS011;57198;52.082;5.108;2023-04-01T14:36:50;6.25;;;5.65;;
69912;SDS011;57198;52.082;5.108;2023-04-01T14:42:13;7.47;;;6.68;;
69912;SDS011;57198;52.082;5.108;2023-04-01T14:50:44;6.10;;;5.57;;
69912;SDS011;57198;52.082;5.108;2023-04-01T14:52:59;6.32;;;5.72;;
69912;SDS011;57198;52.082;5.108;2023-04-01T14:55:28;7.40;;;6.30;;
69912;SDS011;57198;52.082;5.108;2023-04-01T14:58:19;7.17;;;6.47;;
69912;SDS011;57198;52.082;5.108;2023-04-01T15:00:57;7.30;;;6.60;;
69912;SDS011;57198;52.082;5.108;2023-04-01T15:03:32;6.72;;;6.03;;
69912;SDS011;57198;52.082;5.108;2023-04-01T15:11:24;6.00;;;5.40;;
69912;SDS011;57198;52.082;5.108;2023-04-01T15:19:16;8.02;;;6.38;;
69912;SDS011;57198;52.082;5.108;2023-04-01T15:24:48;6.20;;;5.60;;
69912;SDS011;57198;52.082;5.108;2023-04-01T15:30:14;8.07;;;6.50;;
69912;SDS011;57198;52.082;5.108;2023-04-01T15:42:04;7.25;;;6.55;;
69912;SDS011;57198;52.082;5.108;2023-04-01T15:43:50;10.52;;;9.45;;
69912;SDS011;57198;52.082;5.108;2023-04-01T16:01:53;6.40;;;5.80;;
69912;SDS011;57198;52.082;5.108;2023-04-01T16:04:31;7.13;;;5.93;;
69912;SDS011;57198;52.082;5.108;2023-04-01T16:07:16;8.02;;;6.00;;
69912;SDS011;57198;52.082;5.108;2023-04-01T16:12:18;6.78;;;5.25;;
69912;SDS011;57198;52.082;5.108;2023-04-01T16:20:39;6.65;;;5.95;;
69912;SDS011;57198;52.082;5.108;2023-04-01T16:23:22;6.15;;;5.65;;
69912;SDS011;57198;52.082;5.108;2023-04-01T16:25:53;6.25;;;5.45;;
69912;SDS011;57198;52.082;5.108;2023-04-01T16:28:42;5.18;;;4.68;;
69912;SDS011;57198;52.082;5.108;2023-04-01T16:31:27;4.90;;;3.60;;
69912;SDS011;57198;52.082;5.108;2023-04-01T16:34:18;5.07;;;4.45;;
69912;SDS011;57198;52.082;5.108;2023-04-01T16:37:00;4.45;;;4.10;;
69912;SDS011;57198;52.082;5.108;2023-04-01T16:39:41;3.47;;;3.22;;
69912;SDS011;57198;52.082;5.108;2023-04-01T16:42:16;3.42;;;3.15;;
69912;SDS011;57198;52.082;5.108;2023-04-01T16:44:48;3.87;;;3.57;;
69912;SDS011;57198;52.082;5.108;2023-04-01T16:47:21;3.85;;;3.55;;
69912;SDS011;57198;52.082;5.108;2023-04-01T16:55:41;3.13;;;2.85;;
69912;SDS011;57198;52.082;5.108;2023-04-01T16:58:09;3.27;;;2.97;;
69912;SDS011;57198;52.082;5.108;2023-04-01T17:00:38;2.88;;;2.67;;
69912;SDS011;57198;52.082;5.108;2023-04-01T17:11:07;2.40;;;2.30;;
69912;SDS011;57198;52.082;5.108;2023-04-01T17:13:46;3.30;;;2.97;;
69912;SDS011;57198;52.082;5.108;2023-04-01T17:16:22;4.13;;;3.83;;
69912;SDS011;57198;52.082;5.108;2023-04-01T17:24:16;3.33;;;3.00;;
69912;SDS011;57198;52.082;5.108;2023-04-01T17:29:25;4.47;;;4.05;;
69912;SDS011;57198;52.082;5.108;2023-04-01T17:35:05;5.70;;;4.95;;
69912;SDS011;57198;52.082;5.108;2023-04-01T17:37:22;8.33;;;6.30;;
69912;SDS011;57198;52.082;5.108;2023-04-01T17:42:47;5.43;;;4.90;;
69912;SDS011;57198;52.082;5.108;2023-04-01T17:50:49;4.33;;;3.93;;
69912;SDS011;57198;52.082;5.108;2023-04-01T18:03:37;11.37;;;7.37;;
69912;SDS011;57198;52.082;5.108;2023-04-01T18:14:02;5.32;;;4.93;;
69912;SDS011;57198;52.082;5.108;2023-04-01T18:19:24;10.00;;;8.85;;
69912;SDS011;57198;52.082;5.108;2023-04-01T18:30:14;7.33;;;5.90;;
69912;SDS011;57198;52.082;5.108;2023-04-01T18:40:53;4.68;;;4.30;;
69912;SDS011;57198;52.082;5.108;2023-04-01T18:45:58;4.75;;;4.30;;
69912;SDS011;57198;52.082;5.108;2023-04-01T18:51:09;6.57;;;5.82;;
69912;SDS011;57198;52.082;5.108;2023-04-01T18:56:05;10.20;;;7.63;;
69912;SDS011;57198;52.082;5.108;2023-04-01T18:58:34;6.53;;;5.93;;
69912;SDS011;57198;52.082;5.108;2023-04-01T19:01:08;6.72;;;6.18;;
69912;SDS011;57198;52.082;5.108;2023-04-01T19:11:47;6.43;;;5.93;;
69912;SDS011;57198;52.082;5.108;2023-04-01T19:14:23;6.13;;;5.57;;
69912;SDS011;57198;52.082;5.108;2023-04-01T19:19:47;7.47;;;6.78;;
69912;SDS011;57198;52.082;5.108;2023-04-01T19:22:33;6.00;;;5.40;;
69912;SDS011;57198;52.082;5.108;2023-04-01T19:25:22;5.38;;;4.97;;
69912;SDS011;57198;52.082;5.108;2023-04-01T19:28:37;5.85;;;5.40;;
69912;SDS011;57198;52.082;5.108;2023-04-01T19:30:53;5.15;;;4.75;;
69912;SDS011;57198;52.082;5.108;2023-04-01T19:33:40;6.03;;;5.43;;
69912;SDS011;57198;52.082;5.108;2023-04-01T19:36:17;5.50;;;5.10;;
69912;SDS011;57198;52.082;5.108;2023-04-01T19:46:19;9.95;;;8.98;;
69912;SDS011;57198;52.082;5.108;2023-04-01T19:59:55;8.13;;;7.32;;
69912;SDS011;57198;52.082;5.108;2023-04-01T20:04:52;7.22;;;6.53;;
69912;SDS011;57198;52.082;5.108;2023-04-01T20:07:33;7.30;;;6.57;;
69912;SDS011;57198;52.082;5.108;2023-04-01T20:12:52;7.50;;;6.85;;
69912;SDS011;57198;52.082;5.108;2023-04-01T20:17:51;7.70;;;6.32;;
69912;SDS011;57198;52.082;5.108;2023-04-01T20:20:25;8.02;;;7.03;;
69912;SDS011;57198;52.082;5.108;2023-04-01T20:25:38;7.20;;;6.47;;
69912;SDS011;57198;52.082;5.108;2023-04-01T20:28:14;6.23;;;5.70;;
69912;SDS011;57198;52.082;5.108;2023-04-01T20:41:20;6.60;;;5.97;;
69912;SDS011;57198;52.082;5.108;2023-04-01T20:46:39;6.22;;;5.63;;
69912;SDS011;57198;52.082;5.108;2023-04-01T20:54:56;7.20;;;6.10;;
69912;SDS011;57198;52.082;5.108;2023-04-01T20:57:25;6.50;;;5.95;;
69912;SDS011;57198;52.082;5.108;2023-04-01T21:03:00;6.03;;;5.53;;
69912;SDS011;57198;52.082;5.108;2023-04-01T21:10:43;5.65;;;5.15;;
69912;SDS011;57198;52.082;5.108;2023-04-01T21:26:03;6.30;;;5.38;;
69912;SDS011;57198;52.082;5.108;2023-04-01T21:28:46;5.60;;;5.10;;
69912;SDS011;57198;52.082;5.108;2023-04-01T22:05:10;5.78;;;5.28;;
69912;SDS011;57198;52.082;5.108;2023-04-01T22:13:06;5.57;;;5.07;;
69912;SDS011;57198;52.082;5.108;2023-04-01T22:18:12;6.97;;;6.28;;
69912;SDS011;57198;52.082;5.108;2023-04-01T22:23:26;6.72;;;6.13;;
69912;SDS011;57198;52.082;5.108;2023-04-01T22:29:00;6.22;;;5.63;;
69912;SDS011;57198;52.082;5.108;2023-04-01T22:31:35;7.47;;;6.32;;
69912;SDS011;57198;52.082;5.108;2023-04-01T22:34:09;7.13;;;6.03;;
69912;SDS011;57198;52.082;5.108;2023-04-01T22:36:48;6.60;;;6.00;;
69912;SDS011;57198;52.082;5.108;2023-04-01T22:39:26;7.93;;;6.53;;
69912;SDS011;57198;52.082;5.108;2023-04-01T22:42:10;7.05;;;6.35;;
69912;SDS011;57198;52.082;5.108;2023-04-01T22:50:12;7.60;;;6.35;;
69912;SDS011;57198;52.082;5.108;2023-04-01T22:52:42;6.83;;;6.13;;
69912;SDS011;57198;52.082;5.108;2023-04-01T22:55:19;7.53;;;5.97;;
69912;SDS011;57198;52.082;5.108;2023-04-01T22:58:05;7.88;;;6.80;;
69912;SDS011;57198;52.082;5.108;2023-04-01T23:00:43;8.48;;;6.85;;
69912;SDS011;57198;52.082;5.108;2023-04-01T23:03:17;8.52;;;7.22;;
69912;SDS011;57198;52.082;5.108;2023-04-01T23:05:47;9.97;;;7.17;;
69912;SDS011;57198;52.082;5.108;2023-04-01T23:11:04;8.63;;;7.72;;
69912;SDS011;57198;52.082;5.108;2023-04-01T23:13:34;8.07;;;7.25;;
69912;SDS011;57198;52.082;5.108;2023-04-01T23:16:04;11.65;;;8.02;;
69912;SDS011;57198;52.082;5.108;2023-04-01T23:18:55;9.00;;;7.80;;
69912;SDS011;57198;52.082;5.108;2023-04-01T23:26:22;8.52;;;7.20;;
69912;SDS011;57198;52.082;5.108;2023-04-01T23:28:55;11.00;;;8.00;;
69912;SDS011;57198;52.082;5.108;2023-04-01T23:31:30;9.43;;;7.40;;
69912;SDS011;57198;52.082;5.108;2023-04-01T23:33:59;9.05;;;7.70;;
69912;SDS011;57198;52.082;5.108;2023-04-01T23:36:27;10.95;;;7.85;;
69912;SDS011;57198;52.082;5.108;2023-04-01T23:38:56;8.20;;;6.80;;
69912;SDS011;57198;52.082;5.108;2023-04-01T23:41:27;8.18;;;6.97;;
69912;SDS011;57198;52.082;5.108;2023-04-01T23:44:03;11.03;;;7.43;;
69912;SDS011;57198;52.082;5.108;2023-04-01T23:46:32;8.90;;;7.18;;
69912;SDS011;57198;52.082;5.108;2023-04-01T23:49:01;9.05;;;7.63;;
69912;SDS011;57198;52.082;5.108;2023-04-01T23:51:35;9.98;;;7.50;;
69912;SDS011;57198;52.082;5.108;2023-04-01T23:54:13;9.52;;;8.18;;
69912;SDS011;57198;52.082;5.108;2023-04-01T23:56:43;9.17;;;7.27;;
69912;SDS011;57198;52.082;5.108;2023-04-01T23:59:18;9.18;;;7.00;;
